sensor_id;sensor_type;location;lat;lon;timestamp;pressure;altitude;pressure_sealevel;temperature;humidity
36932;BME280;22847;42.654;23.370;2023-12-28T00:02:02;95744.16;;;8.44;64.41
36932;BME280;22847;42.654;23.370;2023-12-28T00:04:27;95756.25;;;8.32;65.65
36932;BME280;22847;42.654;23.370;2023-12-28T00:06:53;95613.69;;;7.65;65.43
36932;BME280;22847;42.654;23.370;2023-12-28T00:09:19;95674.75;;;8.08;66.25
36932;BME280;22847;42.654;23.370;2023-12-28T00:11:44;95755.69;;;8.65;65.78
36932;BME280;22847;42.654;23.370;2023-12-28T00:14:10;95725.88;;;8.45;65.46
36932;BME280;22847;42.654;23.370;2023-12-28T00:16:35;95728.28;;;8.36;64.02
36932;BME280;22847;42.654;23.370;2023-12-28T00:19:03;95697.81;;;8.13;63.33
36932;BME280;22847;42.654;23.370;2023-12-28T00:21:32;95716.81;;;7.88;63.16
36932;BME280;22847;42.654;23.370;2023-12-28T00:23:58;95767.91;;;7.21;65.28
36932;BME280;22847;42.654;23.370;2023-12-28T00:26:23;95606.31;;;6.40;64.21
36932;BME280;22847;42.654;23.370;2023-12-28T00:28:49;95788.88;;;7.45;64.05
36932;BME280;22847;42.654;23.370;2023-12-28T00:31:14;95775.03;;;7.71;63.62
36932;BME280;22847;42.654;23.370;2023-12-28T00:33:40;95769.66;;;7.21;64.89
36932;BME280;22847;42.654;23.370;2023-12-28T00:36:05;95777.47;;;7.47;64.79
36932;BME280;22847;42.654;23.370;2023-12-28T00:38:31;95786.56;;;7.40;64.55
36932;BME280;22847;42.654;23.370;2023-12-28T00:40:57;95756.84;;;7.32;64.39
36932;BME280;22847;42.654;23.370;2023-12-28T00:43:22;95664.97;;;6.82;64.56
36932;BME280;22847;42.654;23.370;2023-12-28T00:45:48;95779.03;;;7.23;64.57
36932;BME280;22847;42.654;23.370;2023-12-28T00:48:13;95658.22;;;6.39;65.81
36932;BME280;22847;42.654;23.370;2023-12-28T00:50:39;95783.81;;;7.02;66.13
36932;BME280;22847;42.654;23.370;2023-12-28T00:53:04;95661.31;;;5.89;67.65
36932;BME280;22847;42.654;23.370;2023-12-28T00:55:30;95815.88;;;6.59;68.66
36932;BME280;22847;42.654;23.370;2023-12-28T00:57:56;95782.66;;;6.51;69.27
36932;BME280;22847;42.654;23.370;2023-12-28T01:00:21;95800.03;;;6.35;70.18
36932;BME280;22847;42.654;23.370;2023-12-28T01:02:47;95642.59;;;5.69;69.44
36932;BME280;22847;42.654;23.370;2023-12-28T01:05:13;95759.06;;;6.42;68.62
36932;BME280;22847;42.654;23.370;2023-12-28T01:07:39;95785.25;;;6.37;69.52
36932;BME280;22847;42.654;23.370;2023-12-28T01:10:05;95813.56;;;6.68;69.38
36932;BME280;22847;42.654;23.370;2023-12-28T01:12:30;95792.97;;;6.94;68.65
36932;BME280;22847;42.654;23.370;2023-12-28T01:14:56;95539.03;;;5.57;67.01
36932;BME280;22847;42.654;23.370;2023-12-28T01:17:21;95792.19;;;7.20;67.37
36932;BME280;22847;42.654;23.370;2023-12-28T01:19:47;95786.28;;;7.04;66.09
36932;BME280;22847;42.654;23.370;2023-12-28T01:22:12;95775.56;;;7.10;65.80
36932;BME280;22847;42.654;23.370;2023-12-28T01:24:38;95792.38;;;7.17;65.54
36932;BME280;22847;42.654;23.370;2023-12-28T01:27:03;95795.16;;;7.14;65.20
36932;BME280;22847;42.654;23.370;2023-12-28T01:29:29;95778.97;;;7.10;64.89
36932;BME280;22847;42.654;23.370;2023-12-28T01:31:54;95625.44;;;6.11;65.52
36932;BME280;22847;42.654;23.370;2023-12-28T01:34:20;95637.34;;;5.99;65.67
36932;BME280;22847;42.654;23.370;2023-12-28T01:36:45;95630.22;;;6.17;65.32
36932;BME280;22847;42.654;23.370;2023-12-28T01:39:11;95779.59;;;7.14;64.98
36932;BME280;22847;42.654;23.370;2023-12-28T01:41:36;95666.50;;;6.58;65.59
36932;BME280;22847;42.654;23.370;2023-12-28T01:44:02;95768.03;;;7.20;64.71
36932;BME280;22847;42.654;23.370;2023-12-28T01:46:28;95792.84;;;7.50;64.68
36932;BME280;22847;42.654;23.370;2023-12-28T01:48:53;95783.53;;;7.60;64.27
36932;BME280;22847;42.654;23.370;2023-12-28T01:51:20;95780.81;;;7.62;63.88
36932;BME280;22847;42.654;23.370;2023-12-28T01:53:48;95785.47;;;7.57;63.14
36932;BME280;22847;42.654;23.370;2023-12-28T01:56:14;95768.69;;;7.36;63.68
36932;BME280;22847;42.654;23.370;2023-12-28T01:58:41;95631.94;;;6.45;63.51
36932;BME280;22847;42.654;23.370;2023-12-28T02:01:09;95734.22;;;7.07;63.06
36932;BME280;22847;42.654;23.370;2023-12-28T02:03:35;95769.78;;;7.19;63.12
36932;BME280;22847;42.654;23.370;2023-12-28T02:06:01;95764.19;;;7.25;63.14
36932;BME280;22847;42.654;23.370;2023-12-28T02:08:27;95774.88;;;6.80;64.70
36932;BME280;22847;42.654;23.370;2023-12-28T02:10:53;95807.66;;;6.52;66.39
36932;BME280;22847;42.654;23.370;2023-12-28T02:13:20;95773.22;;;6.50;66.85
36932;BME280;22847;42.654;23.370;2023-12-28T02:15:47;95768.59;;;6.41;66.73
36932;BME280;22847;42.654;23.370;2023-12-28T02:18:19;95732.59;;;6.37;66.33
36932;BME280;22847;42.654;23.370;2023-12-28T02:20:47;95727.88;;;6.57;64.87
36932;BME280;22847;42.654;23.370;2023-12-28T02:23:14;95773.34;;;6.90;65.25
36932;BME280;22847;42.654;23.370;2023-12-28T02:25:40;95773.44;;;7.02;65.50
36932;BME280;22847;42.654;23.370;2023-12-28T02:28:05;95772.94;;;7.10;64.82
36932;BME280;22847;42.654;23.370;2023-12-28T02:30:31;95760.00;;;7.10;64.88
36932;BME280;22847;42.654;23.370;2023-12-28T02:35:33;95732.06;;;6.87;65.58
36932;BME280;22847;42.654;23.370;2023-12-28T02:38:05;95603.69;;;6.13;64.63
36932;BME280;22847;42.654;23.370;2023-12-28T02:40:36;95765.34;;;7.07;64.97
36932;BME280;22847;42.654;23.370;2023-12-28T02:43:03;95754.34;;;7.03;64.94
36932;BME280;22847;42.654;23.370;2023-12-28T02:45:29;95745.38;;;6.95;64.66
36932;BME280;22847;42.654;23.370;2023-12-28T02:47:54;95786.75;;;7.10;64.73
36932;BME280;22847;42.654;23.370;2023-12-28T02:50:20;95767.13;;;6.37;67.15
36932;BME280;22847;42.654;23.370;2023-12-28T02:52:45;95766.75;;;6.57;67.12
36932;BME280;22847;42.654;23.370;2023-12-28T02:55:11;95755.28;;;6.61;67.34
36932;BME280;22847;42.654;23.370;2023-12-28T02:57:38;95603.53;;;5.88;66.90
36932;BME280;22847;42.654;23.370;2023-12-28T03:00:07;95764.66;;;6.91;67.12
36932;BME280;22847;42.654;23.370;2023-12-28T03:02:37;95753.16;;;6.95;66.98
36932;BME280;22847;42.654;23.370;2023-12-28T03:05:07;95747.53;;;6.88;66.85
36932;BME280;22847;42.654;23.370;2023-12-28T03:07:35;95668.03;;;6.48;67.31
36932;BME280;22847;42.654;23.370;2023-12-28T03:10:02;95753.66;;;6.87;66.98
36932;BME280;22847;42.654;23.370;2023-12-28T03:12:29;95601.09;;;5.99;66.57
36932;BME280;22847;42.654;23.370;2023-12-28T03:14:55;95743.13;;;6.05;69.49
36932;BME280;22847;42.654;23.370;2023-12-28T03:17:20;95633.41;;;5.06;71.59
36932;BME280;22847;42.654;23.370;2023-12-28T03:19:46;95715.00;;;4.80;75.02
36932;BME280;22847;42.654;23.370;2023-12-28T03:22:12;95771.16;;;5.08;75.33
36932;BME280;22847;42.654;23.370;2023-12-28T03:24:38;95754.91;;;4.74;77.94
36932;BME280;22847;42.654;23.370;2023-12-28T03:27:04;95755.41;;;5.12;78.47
36932;BME280;22847;42.654;23.370;2023-12-28T03:29:30;95746.41;;;5.49;76.08
36932;BME280;22847;42.654;23.370;2023-12-28T03:31:55;95750.50;;;5.08;77.26
36932;BME280;22847;42.654;23.370;2023-12-28T03:34:21;95734.63;;;5.14;75.96
36932;BME280;22847;42.654;23.370;2023-12-28T03:36:48;95715.63;;;5.15;75.48
36932;BME280;22847;42.654;23.370;2023-12-28T03:39:13;95726.25;;;5.40;74.04
36932;BME280;22847;42.654;23.370;2023-12-28T03:41:39;95772.47;;;5.76;73.55
36932;BME280;22847;42.654;23.370;2023-12-28T03:44:04;95644.72;;;5.19;72.67
36932;BME280;22847;42.654;23.370;2023-12-28T03:46:30;95749.06;;;6.07;71.29
36932;BME280;22847;42.654;23.370;2023-12-28T03:48:55;95707.91;;;5.89;70.87
36932;BME280;22847;42.654;23.370;2023-12-28T03:51:21;95660.91;;;5.66;70.25
36932;BME280;22847;42.654;23.370;2023-12-28T03:53:46;95626.75;;;5.46;69.53
36932;BME280;22847;42.654;23.370;2023-12-28T03:56:25;95794.38;;;6.14;70.12
36932;BME280;22847;42.654;23.370;2023-12-28T03:58:51;95801.53;;;6.39;69.56
36932;BME280;22847;42.654;23.370;2023-12-28T04:01:18;95790.34;;;6.39;68.54
36932;BME280;22847;42.654;23.370;2023-12-28T04:03:44;95631.22;;;5.44;68.26
36932;BME280;22847;42.654;23.370;2023-12-28T04:06:10;95800.97;;;6.34;68.47
36932;BME280;22847;42.654;23.370;2023-12-28T04:08:35;95785.16;;;6.39;68.99
36932;BME280;22847;42.654;23.370;2023-12-28T04:11:01;95787.56;;;6.42;68.88
36932;BME280;22847;42.654;23.370;2023-12-28T04:13:26;95785.88;;;6.41;68.69
36932;BME280;22847;42.654;23.370;2023-12-28T04:15:52;95753.69;;;6.16;69.20
36932;BME280;22847;42.654;23.370;2023-12-28T04:18:17;95750.00;;;6.20;69.01
36932;BME280;22847;42.654;23.370;2023-12-28T04:20:43;95650.56;;;5.66;69.67
36932;BME280;22847;42.654;23.370;2023-12-28T04:23:10;95772.22;;;6.39;69.44
36932;BME280;22847;42.654;23.370;2023-12-28T04:25:35;95756.28;;;6.31;69.57
36932;BME280;22847;42.654;23.370;2023-12-28T04:28:01;95666.72;;;5.84;68.97
36932;BME280;22847;42.654;23.370;2023-12-28T04:30:26;95633.53;;;5.62;67.37
36932;BME280;22847;42.654;23.370;2023-12-28T04:32:52;95771.72;;;6.32;67.31
36932;BME280;22847;42.654;23.370;2023-12-28T04:35:18;95790.72;;;6.47;67.38
36932;BME280;22847;42.654;23.370;2023-12-28T04:37:44;95765.44;;;6.36;67.44
36932;BME280;22847;42.654;23.370;2023-12-28T04:40:10;95618.09;;;5.47;67.81
36932;BME280;22847;42.654;23.370;2023-12-28T04:42:35;95621.25;;;5.52;68.30
36932;BME280;22847;42.654;23.370;2023-12-28T04:45:01;95781.47;;;6.57;68.55
36932;BME280;22847;42.654;23.370;2023-12-28T04:47:27;95636.78;;;5.66;68.40
36932;BME280;22847;42.654;23.370;2023-12-28T04:49:52;95792.56;;;6.59;68.18
36932;BME280;22847;42.654;23.370;2023-12-28T04:52:18;95745.34;;;6.40;68.16
36932;BME280;22847;42.654;23.370;2023-12-28T04:54:43;95798.38;;;6.62;68.03
36932;BME280;22847;42.654;23.370;2023-12-28T04:57:09;95774.97;;;6.64;67.76
36932;BME280;22847;42.654;23.370;2023-12-28T04:59:38;95779.03;;;6.68;67.68
36932;BME280;22847;42.654;23.370;2023-12-28T05:02:04;95659.28;;;5.94;68.65
36932;BME280;22847;42.654;23.370;2023-12-28T05:04:30;95780.06;;;6.65;68.82
36932;BME280;22847;42.654;23.370;2023-12-28T05:06:55;95706.25;;;6.16;68.28
36932;BME280;22847;42.654;23.370;2023-12-28T05:09:21;95524.44;;;5.13;68.49
36932;BME280;22847;42.654;23.370;2023-12-28T05:11:46;95815.78;;;6.75;68.23
36932;BME280;22847;42.654;23.370;2023-12-28T05:14:12;95774.13;;;6.63;68.27
36932;BME280;22847;42.654;23.370;2023-12-28T05:16:37;95773.13;;;6.66;67.76
36932;BME280;22847;42.654;23.370;2023-12-28T05:19:03;95773.78;;;6.69;66.64
36932;BME280;22847;42.654;23.370;2023-12-28T05:21:28;95823.44;;;6.76;66.55
36932;BME280;22847;42.654;23.370;2023-12-28T05:23:54;95706.25;;;6.16;66.89
36932;BME280;22847;42.654;23.370;2023-12-28T05:26:19;95791.34;;;6.64;67.15
36932;BME280;22847;42.654;23.370;2023-12-28T05:28:45;95611.72;;;5.52;67.32
36932;BME280;22847;42.654;23.370;2023-12-28T05:31:10;95822.69;;;6.32;68.86
36932;BME280;22847;42.654;23.370;2023-12-28T05:33:36;95683.00;;;5.42;68.89
36932;BME280;22847;42.654;23.370;2023-12-28T05:36:01;95799.56;;;6.28;68.74
36932;BME280;22847;42.654;23.370;2023-12-28T05:38:27;95649.78;;;5.50;68.12
36932;BME280;22847;42.654;23.370;2023-12-28T05:40:52;95646.28;;;5.51;67.80
36932;BME280;22847;42.654;23.370;2023-12-28T05:43:18;95804.94;;;6.40;67.03
36932;BME280;22847;42.654;23.370;2023-12-28T05:45:43;95773.38;;;6.19;66.64
36932;BME280;22847;42.654;23.370;2023-12-28T05:48:09;95653.19;;;5.51;66.43
36932;BME280;22847;42.654;23.370;2023-12-28T05:50:35;95805.06;;;5.49;69.97
36932;BME280;22847;42.654;23.370;2023-12-28T05:53:00;95804.56;;;5.58;69.88
36932;BME280;22847;42.654;23.370;2023-12-28T05:55:26;95797.97;;;5.82;68.79
36932;BME280;22847;42.654;23.370;2023-12-28T05:57:52;95795.38;;;5.98;67.52
36932;BME280;22847;42.654;23.370;2023-12-28T06:00:17;95670.41;;;5.22;67.03
36932;BME280;22847;42.654;23.370;2023-12-28T06:02:43;95787.75;;;5.95;67.07
36932;BME280;22847;42.654;23.370;2023-12-28T06:05:08;95759.88;;;5.70;66.56
36932;BME280;22847;42.654;23.370;2023-12-28T06:07:34;95666.84;;;5.38;66.43
36932;BME280;22847;42.654;23.370;2023-12-28T06:10:00;95806.03;;;6.36;66.41
36932;BME280;22847;42.654;23.370;2023-12-28T06:12:25;95644.03;;;5.31;66.16
36932;BME280;22847;42.654;23.370;2023-12-28T06:14:51;95834.09;;;6.29;66.84
36932;BME280;22847;42.654;23.370;2023-12-28T06:17:16;95796.41;;;6.09;66.83
36932;BME280;22847;42.654;23.370;2023-12-28T06:19:43;95808.91;;;6.31;67.36
36932;BME280;22847;42.654;23.370;2023-12-28T06:22:09;95788.94;;;6.19;67.32
36932;BME280;22847;42.654;23.370;2023-12-28T06:24:38;95794.44;;;6.13;66.78
36932;BME280;22847;42.654;23.370;2023-12-28T06:27:04;95646.44;;;5.34;68.40
36932;BME280;22847;42.654;23.370;2023-12-28T06:29:30;95821.06;;;6.73;66.40
36932;BME280;22847;42.654;23.370;2023-12-28T06:31:55;95815.28;;;8.81;60.92
36932;BME280;22847;42.654;23.370;2023-12-28T06:34:21;95821.19;;;10.84;54.08
36932;BME280;22847;42.654;23.370;2023-12-28T06:36:46;95835.81;;;12.59;49.68
36932;BME280;22847;42.654;23.370;2023-12-28T06:39:12;95807.94;;;14.17;44.80
36932;BME280;22847;42.654;23.370;2023-12-28T06:41:37;95834.50;;;14.99;43.46
36932;BME280;22847;42.654;23.370;2023-12-28T06:44:03;95804.75;;;15.36;39.49
36932;BME280;22847;42.654;23.370;2023-12-28T06:46:28;95677.78;;;14.90;38.72
36932;BME280;22847;42.654;23.370;2023-12-28T06:48:54;95836.44;;;14.97;39.41
36932;BME280;22847;42.654;23.370;2023-12-28T06:51:20;95827.28;;;16.46;36.97
36932;BME280;22847;42.654;23.370;2023-12-28T06:53:47;95832.34;;;16.75;35.18
36932;BME280;22847;42.654;23.370;2023-12-28T06:56:14;95799.09;;;17.42;34.41
36932;BME280;22847;42.654;23.370;2023-12-28T06:58:40;95804.00;;;18.53;33.03
36932;BME280;22847;42.654;23.370;2023-12-28T07:01:05;95769.31;;;18.72;31.71
36932;BME280;22847;42.654;23.370;2023-12-28T07:03:32;95783.16;;;19.37;30.75
36932;BME280;22847;42.654;23.370;2023-12-28T07:05:58;95647.72;;;16.34;33.83
36932;BME280;22847;42.654;23.370;2023-12-28T07:08:24;95800.25;;;17.81;34.17
36932;BME280;22847;42.654;23.370;2023-12-28T07:10:49;95767.56;;;17.24;34.00
36932;BME280;22847;42.654;23.370;2023-12-28T07:13:15;95824.34;;;17.52;33.79
36932;BME280;22847;42.654;23.370;2023-12-28T07:15:40;95745.50;;;16.65;35.29
36932;BME280;22847;42.654;23.370;2023-12-28T07:18:06;95772.19;;;16.96;35.96
36932;BME280;22847;42.654;23.370;2023-12-28T07:20:31;95802.66;;;18.57;33.98
36932;BME280;22847;42.654;23.370;2023-12-28T07:22:57;95809.84;;;17.90;33.48
36932;BME280;22847;42.654;23.370;2023-12-28T07:25:22;95781.06;;;19.25;32.13
36932;BME280;22847;42.654;23.370;2023-12-28T07:27:48;95797.22;;;20.76;30.24
36932;BME280;22847;42.654;23.370;2023-12-28T07:30:14;95702.22;;;20.13;30.31
36932;BME280;22847;42.654;23.370;2023-12-28T07:32:42;95803.34;;;21.87;28.72
36932;BME280;22847;42.654;23.370;2023-12-28T07:35:07;95801.16;;;22.90;27.07
36932;BME280;22847;42.654;23.370;2023-12-28T07:37:33;95700.69;;;22.92;26.63
36932;BME280;22847;42.654;23.370;2023-12-28T07:39:59;95801.63;;;24.04;25.30
36932;BME280;22847;42.654;23.370;2023-12-28T07:42:25;95780.19;;;24.38;25.00
36932;BME280;22847;42.654;23.370;2023-12-28T07:44:50;95802.41;;;24.84;24.31
36932;BME280;22847;42.654;23.370;2023-12-28T07:47:16;95795.53;;;23.06;24.97
36932;BME280;22847;42.654;23.370;2023-12-28T07:49:41;95782.66;;;20.94;27.26
36932;BME280;22847;42.654;23.370;2023-12-28T07:52:07;95796.94;;;21.81;27.19
36932;BME280;22847;42.654;23.370;2023-12-28T07:54:32;95786.16;;;22.19;26.74
36932;BME280;22847;42.654;23.370;2023-12-28T07:56:59;95755.47;;;22.16;26.30
36932;BME280;22847;42.654;23.370;2023-12-28T07:59:24;95796.66;;;22.48;25.80
36932;BME280;22847;42.654;23.370;2023-12-28T08:01:50;95802.63;;;19.60;29.06
36932;BME280;22847;42.654;23.370;2023-12-28T08:04:15;95704.75;;;18.50;30.35
36932;BME280;22847;42.654;23.370;2023-12-28T08:06:41;95781.78;;;19.10;30.84
36932;BME280;22847;42.654;23.370;2023-12-28T08:09:06;95789.72;;;19.02;31.28
36932;BME280;22847;42.654;23.370;2023-12-28T08:11:32;95771.59;;;18.43;33.31
36932;BME280;22847;42.654;23.370;2023-12-28T08:13:57;95800.16;;;18.23;33.88
36932;BME280;22847;42.654;23.370;2023-12-28T08:16:23;95701.56;;;17.08;36.03
36932;BME280;22847;42.654;23.370;2023-12-28T08:18:48;95790.94;;;17.19;36.70
36932;BME280;22847;42.654;23.370;2023-12-28T08:21:14;95809.09;;;16.96;37.03
36932;BME280;22847;42.654;23.370;2023-12-28T08:23:40;95815.25;;;16.79;37.86
36932;BME280;22847;42.654;23.370;2023-12-28T08:26:05;95713.00;;;16.13;38.28
36932;BME280;22847;42.654;23.370;2023-12-28T08:28:32;95792.84;;;16.39;38.69
36932;BME280;22847;42.654;23.370;2023-12-28T08:30:58;95689.06;;;15.81;39.37
36932;BME280;22847;42.654;23.370;2023-12-28T08:33:23;95805.50;;;16.00;39.60
36932;BME280;22847;42.654;23.370;2023-12-28T08:35:49;95802.03;;;15.82;40.13
36932;BME280;22847;42.654;23.370;2023-12-28T08:38:15;95816.91;;;15.91;41.01
36932;BME280;22847;42.654;23.370;2023-12-28T08:40:41;95674.00;;;15.20;40.59
36932;BME280;22847;42.654;23.370;2023-12-28T08:43:07;95716.97;;;15.74;40.31
36932;BME280;22847;42.654;23.370;2023-12-28T08:45:32;95789.47;;;16.47;40.74
36932;BME280;22847;42.654;23.370;2023-12-28T08:47:59;95765.13;;;16.53;40.13
36932;BME280;22847;42.654;23.370;2023-12-28T08:50:25;95781.03;;;16.87;39.96
36932;BME280;22847;42.654;23.370;2023-12-28T08:52:50;95753.34;;;16.83;40.43
36932;BME280;22847;42.654;23.370;2023-12-28T08:55:16;95674.44;;;16.47;39.69
36932;BME280;22847;42.654;23.370;2023-12-28T08:57:41;95637.84;;;16.36;39.37
36932;BME280;22847;42.654;23.370;2023-12-28T09:00:07;95789.47;;;17.24;39.37
36932;BME280;22847;42.654;23.370;2023-12-28T09:02:33;95744.81;;;17.23;39.56
36932;BME280;22847;42.654;23.370;2023-12-28T09:04:58;95749.41;;;17.21;38.91
36932;BME280;22847;42.654;23.370;2023-12-28T09:07:24;95737.50;;;17.09;39.70
36932;BME280;22847;42.654;23.370;2023-12-28T09:09:50;95762.63;;;16.95;40.68
36932;BME280;22847;42.654;23.370;2023-12-28T09:12:16;95785.44;;;16.78;40.02
36932;BME280;22847;42.654;23.370;2023-12-28T09:14:41;95652.38;;;15.53;41.28
36932;BME280;22847;42.654;23.370;2023-12-28T09:17:06;95724.41;;;15.60;41.61
36932;BME280;22847;42.654;23.370;2023-12-28T09:19:32;95746.41;;;15.50;42.48
36932;BME280;22847;42.654;23.370;2023-12-28T09:21:57;95599.44;;;14.21;43.84
36932;BME280;22847;42.654;23.370;2023-12-28T09:24:23;95610.13;;;14.01;44.68
36932;BME280;22847;42.654;23.370;2023-12-28T09:26:48;95739.66;;;14.65;45.19
36932;BME280;22847;42.654;23.370;2023-12-28T09:29:14;95754.88;;;14.52;45.71
36932;BME280;22847;42.654;23.370;2023-12-28T09:31:40;95754.03;;;14.61;45.20
36932;BME280;22847;42.654;23.370;2023-12-28T09:34:05;95730.00;;;14.56;45.58
36932;BME280;22847;42.654;23.370;2023-12-28T09:36:31;95619.22;;;14.06;46.28
36932;BME280;22847;42.654;23.370;2023-12-28T09:38:57;95727.47;;;14.64;45.64
36932;BME280;22847;42.654;23.370;2023-12-28T09:41:26;95714.28;;;14.84;46.47
36932;BME280;22847;42.654;23.370;2023-12-28T09:44:05;95679.19;;;14.85;44.48
36932;BME280;22847;42.654;23.370;2023-12-28T09:46:32;95703.75;;;14.93;44.59
36932;BME280;22847;42.654;23.370;2023-12-28T09:48:58;95581.84;;;14.41;45.59
36932;BME280;22847;42.654;23.370;2023-12-28T09:51:24;95663.94;;;15.15;43.81
36932;BME280;22847;42.654;23.370;2023-12-28T09:53:50;95682.50;;;15.32;44.57
36932;BME280;22847;42.654;23.370;2023-12-28T09:56:16;95700.91;;;15.49;44.01
36932;BME280;22847;42.654;23.370;2023-12-28T09:58:42;95700.56;;;15.44;44.10
36932;BME280;22847;42.654;23.370;2023-12-28T10:01:10;95691.25;;;15.68;44.41
36932;BME280;22847;42.654;23.370;2023-12-28T10:03:36;95542.78;;;14.83;43.41
36932;BME280;22847;42.654;23.370;2023-12-28T10:06:01;95583.91;;;15.10;43.25
36932;BME280;22847;42.654;23.370;2023-12-28T10:08:27;95684.72;;;15.54;44.16
36932;BME280;22847;42.654;23.370;2023-12-28T10:10:53;95683.84;;;15.36;44.78
36932;BME280;22847;42.654;23.370;2023-12-28T10:13:20;95631.84;;;15.22;44.38
36932;BME280;22847;42.654;23.370;2023-12-28T10:15:49;95582.94;;;15.29;44.06
36932;BME280;22847;42.654;23.370;2023-12-28T10:18:19;95640.53;;;15.40;44.40
36932;BME280;22847;42.654;23.370;2023-12-28T10:20:52;95667.22;;;15.80;43.91
36932;BME280;22847;42.654;23.370;2023-12-28T10:23:19;95565.56;;;15.36;43.36
36932;BME280;22847;42.654;23.370;2023-12-28T10:25:45;95560.38;;;15.53;43.02
36932;BME280;22847;42.654;23.370;2023-12-28T10:28:11;95626.34;;;16.12;42.39
36932;BME280;22847;42.654;23.370;2023-12-28T10:30:40;95650.59;;;16.23;42.48
36932;BME280;22847;42.654;23.370;2023-12-28T10:33:07;95629.38;;;16.25;42.31
36932;BME280;22847;42.654;23.370;2023-12-28T10:35:32;95514.06;;;15.60;42.38
36932;BME280;22847;42.654;23.370;2023-12-28T10:38:01;95621.28;;;16.18;42.81
36932;BME280;22847;42.654;23.370;2023-12-28T10:40:29;95606.53;;;16.25;43.20
36932;BME280;22847;42.654;23.370;2023-12-28T10:42:59;95608.22;;;16.34;42.49
36932;BME280;22847;42.654;23.370;2023-12-28T10:45:30;95590.38;;;16.20;42.67
36932;BME280;22847;42.654;23.370;2023-12-28T10:48:07;95489.50;;;15.78;42.92
36932;BME280;22847;42.654;23.370;2023-12-28T10:50:41;95582.78;;;16.51;42.09
36932;BME280;22847;42.654;23.370;2023-12-28T10:53:37;95580.13;;;16.77;41.65
36932;BME280;22847;42.654;23.370;2023-12-28T10:59:03;95568.97;;;16.99;41.57
36932;BME280;22847;42.654;23.370;2023-12-28T11:01:32;95550.03;;;16.95;41.76
36932;BME280;22847;42.654;23.370;2023-12-28T11:06:36;95352.75;;;15.70;41.21
36932;BME280;22847;42.654;23.370;2023-12-28T11:09:03;95552.13;;;16.76;42.06
36932;BME280;22847;42.654;23.370;2023-12-28T11:16:41;95547.19;;;16.73;43.13
36932;BME280;22847;42.654;23.370;2023-12-28T11:19:09;95213.38;;;14.44;42.91
36932;BME280;22847;42.654;23.370;2023-12-28T11:21:36;95421.03;;;15.95;43.47
36932;BME280;22847;42.654;23.370;2023-12-28T11:24:03;95516.78;;;16.44;43.65
36932;BME280;22847;42.654;23.370;2023-12-28T11:26:29;95485.78;;;16.22;43.87
36932;BME280;22847;42.654;23.370;2023-12-28T11:29:01;95386.13;;;15.43;43.80
36932;BME280;22847;42.654;23.370;2023-12-28T11:31:27;95397.75;;;15.41;44.18
36932;BME280;22847;42.654;23.370;2023-12-28T11:33:52;95467.09;;;15.66;44.29
36932;BME280;22847;42.654;23.370;2023-12-28T11:36:25;95494.91;;;15.76;46.36
36932;BME280;22847;42.654;23.370;2023-12-28T11:38:56;95522.84;;;16.03;45.12
36932;BME280;22847;42.654;23.370;2023-12-28T11:41:26;95470.56;;;16.00;45.19
36932;BME280;22847;42.654;23.370;2023-12-28T11:43:53;95497.81;;;16.25;44.30
36932;BME280;22847;42.654;23.370;2023-12-28T11:46:20;95478.56;;;16.32;43.48
36932;BME280;22847;42.654;23.370;2023-12-28T11:48:46;95477.22;;;16.20;43.53
36932;BME280;22847;42.654;23.370;2023-12-28T11:51:12;95387.44;;;15.47;43.77
36932;BME280;22847;42.654;23.370;2023-12-28T11:53:38;95365.00;;;15.27;43.63
36932;BME280;22847;42.654;23.370;2023-12-28T11:56:03;95489.25;;;15.89;44.00
36932;BME280;22847;42.654;23.370;2023-12-28T11:58:30;95299.19;;;14.34;45.42
36932;BME280;22847;42.654;23.370;2023-12-28T12:00:58;95362.84;;;14.97;45.33
36932;BME280;22847;42.654;23.370;2023-12-28T12:03:25;95480.97;;;15.76;44.40
36932;BME280;22847;42.654;23.370;2023-12-28T12:05:51;95474.63;;;15.94;43.86
36932;BME280;22847;42.654;23.370;2023-12-28T12:08:17;95388.09;;;15.49;43.41
36932;BME280;22847;42.654;23.370;2023-12-28T12:10:43;95391.19;;;15.45;43.20
36932;BME280;22847;42.654;23.370;2023-12-28T12:13:08;95263.84;;;14.63;43.39
36932;BME280;22847;42.654;23.370;2023-12-28T12:15:34;95459.66;;;15.95;44.50
36932;BME280;22847;42.654;23.370;2023-12-28T12:18:01;95333.91;;;15.14;43.61
36932;BME280;22847;42.654;23.370;2023-12-28T12:20:26;95467.88;;;15.92;43.66
36932;BME280;22847;42.654;23.370;2023-12-28T12:23:00;95438.25;;;15.82;44.29
36932;BME280;22847;42.654;23.370;2023-12-28T12:25:26;95457.75;;;16.05;44.17
36932;BME280;22847;42.654;23.370;2023-12-28T12:27:53;95448.31;;;15.94;43.39
36932;BME280;22847;42.654;23.370;2023-12-28T12:30:19;95359.50;;;15.46;44.61
36932;BME280;22847;42.654;23.370;2023-12-28T12:32:45;95454.97;;;16.06;43.35
36932;BME280;22847;42.654;23.370;2023-12-28T12:35:11;95386.69;;;15.55;44.48
36932;BME280;22847;42.654;23.370;2023-12-28T12:37:37;95459.06;;;16.01;43.77
36932;BME280;22847;42.654;23.370;2023-12-28T12:40:04;95463.06;;;15.79;43.74
36932;BME280;22847;42.654;23.370;2023-12-28T12:42:32;95456.19;;;15.52;44.45
36932;BME280;22847;42.654;23.370;2023-12-28T12:44:57;95488.09;;;15.57;45.73
36932;BME280;22847;42.654;23.370;2023-12-28T12:47:23;95449.44;;;15.32;45.47
36932;BME280;22847;42.654;23.370;2023-12-28T12:49:51;95352.44;;;14.87;45.05
36932;BME280;22847;42.654;23.370;2023-12-28T12:52:17;95472.81;;;15.61;45.03
36932;BME280;22847;42.654;23.370;2023-12-28T12:54:42;95427.91;;;15.29;45.48
36932;BME280;22847;42.654;23.370;2023-12-28T12:57:08;95426.56;;;15.25;45.22
36932;BME280;22847;42.654;23.370;2023-12-28T12:59:33;95326.97;;;14.80;45.37
36932;BME280;22847;42.654;23.370;2023-12-28T13:02:00;95363.97;;;15.20;44.59
36932;BME280;22847;42.654;23.370;2023-12-28T13:04:26;95469.66;;;15.83;43.81